Eagletown, Oklahoma
Current Conditions -  °F | °C
As of 2:53 PM on Friday 31 Oct 2014 (Local Time) from KDEQ Reporting Station
Clear Clear  
Wind Chill: 64°   Ceiling: Unl
Heat Index: 64°   Visibility: 10mi
Dew Point: 43°   Wind: 13mph
Humidity: 46%   Direction: 20°NNE
Pressure: 30.24"   Gusts: 20mph
Location:  34.03°N, 94.58°W
Report Text: KDEQ 311953Z AUTO 02011G17KT 10SM CLR 18/06 A3024 RMK AO2 SLP236 T01780061
Loading
Personal Weather Stations






























Interactive Weather Map
Tropical Storm Tracking
New forecast layout! Learn more

10-Day Weather Forecast

Advertisements
Track Severe Weather on mobile